Terminal Aerodrome Forecast
Issued by NWS Lake Charles, LA

Home | Current Version | Previous Version | Text Only | Print | Product List | Glossary On
Versions: 1 2 3 4 5 6 7 8 9 10 11 12 13 14 15 16 17 18 19 20 21 22 23
000
FTUS44 KLCH 041100
TAFLFT
TAF
KLFT 041130Z 0412/0512 15005KT 6SM BR SCT004 OVC025
      TEMPO 0412/0416 3SM BR OVC003
     FM041600 18010KT P6SM OVC015
     FM041900 18012G17KT P6SM VCSH OVC025
     FM050200 17005KT 5SM BR VCSH OVC005
     FM050800 36015G20KT 4SM -RA BR OVC007=

USA.gov is the U.S. government's official web portal to all federal, state and local government web resources and services.